sensor_id;sensor_type;location;lat;lon;timestamp;P1;durP1;ratioP1;P2;durP2;ratioP2
67839;SDS011;54636;51.684;5.142;2023-05-07T00:00:04;11.77;;;6.75;;
67839;SDS011;54636;51.684;5.142;2023-05-07T00:02:33;7.95;;;6.65;;
67839;SDS011;54636;51.684;5.142;2023-05-07T00:04:58;7.82;;;7.07;;
67839;SDS011;54636;51.684;5.142;2023-05-07T00:07:24;7.47;;;6.78;;
67839;SDS011;54636;51.684;5.142;2023-05-07T00:09:49;7.80;;;7.03;;
67839;SDS011;54636;51.684;5.142;2023-05-07T00:12:15;7.18;;;6.50;;
67839;SDS011;54636;51.684;5.142;2023-05-07T00:14:40;14.25;;;7.80;;
67839;SDS011;54636;51.684;5.142;2023-05-07T00:17:06;7.55;;;6.90;;
67839;SDS011;54636;51.684;5.142;2023-05-07T00:19:31;8.50;;;7.28;;
67839;SDS011;54636;51.684;5.142;2023-05-07T00:21:57;8.55;;;7.85;;
67839;SDS011;54636;51.684;5.142;2023-05-07T00:24:23;8.57;;;7.68;;
67839;SDS011;54636;51.684;5.142;2023-05-07T00:26:49;12.38;;;7.70;;
67839;SDS011;54636;51.684;5.142;2023-05-07T00:29:15;9.75;;;7.22;;
67839;SDS011;54636;51.684;5.142;2023-05-07T00:31:40;7.75;;;7.03;;
67839;SDS011;54636;51.684;5.142;2023-05-07T00:34:06;9.63;;;7.50;;
67839;SDS011;54636;51.684;5.142;2023-05-07T00:36:31;11.43;;;7.05;;
67839;SDS011;54636;51.684;5.142;2023-05-07T00:38:58;8.40;;;7.70;;
67839;SDS011;54636;51.684;5.142;2023-05-07T00:41:25;8.40;;;7.50;;
67839;SDS011;54636;51.684;5.142;2023-05-07T00:43:51;7.43;;;6.88;;
67839;SDS011;54636;51.684;5.142;2023-05-07T00:46:17;8.60;;;7.70;;
67839;SDS011;54636;51.684;5.142;2023-05-07T00:48:45;8.63;;;7.90;;
67839;SDS011;54636;51.684;5.142;2023-05-07T00:51:10;8.05;;;7.35;;
67839;SDS011;54636;51.684;5.142;2023-05-07T00:53:36;11.05;;;8.40;;
67839;SDS011;54636;51.684;5.142;2023-05-07T00:56:03;8.95;;;7.57;;
67839;SDS011;54636;51.684;5.142;2023-05-07T00:58:28;10.43;;;7.70;;
67839;SDS011;54636;51.684;5.142;2023-05-07T01:00:55;8.48;;;7.88;;
67839;SDS011;54636;51.684;5.142;2023-05-07T01:03:20;9.55;;;7.88;;
67839;SDS011;54636;51.684;5.142;2023-05-07T01:05:46;9.20;;;8.20;;
67839;SDS011;54636;51.684;5.142;2023-05-07T01:08:13;10.15;;;7.25;;
67839;SDS011;54636;51.684;5.142;2023-05-07T01:10:41;8.77;;;7.32;;
67839;SDS011;54636;51.684;5.142;2023-05-07T01:13:08;8.40;;;7.63;;
67839;SDS011;54636;51.684;5.142;2023-05-07T01:15:35;8.35;;;7.43;;
67839;SDS011;54636;51.684;5.142;2023-05-07T01:18:01;8.75;;;7.97;;
67839;SDS011;54636;51.684;5.142;2023-05-07T01:20:27;8.10;;;7.30;;
67839;SDS011;54636;51.684;5.142;2023-05-07T01:22:53;8.30;;;7.63;;
67839;SDS011;54636;51.684;5.142;2023-05-07T01:25:18;8.68;;;6.82;;
67839;SDS011;54636;51.684;5.142;2023-05-07T01:27:44;7.93;;;7.25;;
67839;SDS011;54636;51.684;5.142;2023-05-07T01:30:10;10.05;;;7.72;;
67839;SDS011;54636;51.684;5.142;2023-05-07T01:32:38;7.93;;;7.20;;
67839;SDS011;54636;51.684;5.142;2023-05-07T01:35:09;8.30;;;7.63;;
67839;SDS011;54636;51.684;5.142;2023-05-07T01:37:37;8.20;;;7.40;;
67839;SDS011;54636;51.684;5.142;2023-05-07T01:40:04;8.70;;;7.65;;
67839;SDS011;54636;51.684;5.142;2023-05-07T01:42:32;8.73;;;8.02;;
67839;SDS011;54636;51.684;5.142;2023-05-07T01:44:58;8.27;;;7.47;;
67839;SDS011;54636;51.684;5.142;2023-05-07T01:47:24;8.43;;;7.60;;
67839;SDS011;54636;51.684;5.142;2023-05-07T01:49:50;8.73;;;7.85;;
67839;SDS011;54636;51.684;5.142;2023-05-07T01:52:15;8.40;;;7.68;;
67839;SDS011;54636;51.684;5.142;2023-05-07T01:54:41;9.35;;;7.53;;
67839;SDS011;54636;51.684;5.142;2023-05-07T01:57:06;8.25;;;7.65;;
67839;SDS011;54636;51.684;5.142;2023-05-07T01:59:32;9.15;;;8.25;;
67839;SDS011;54636;51.684;5.142;2023-05-07T02:01:57;8.15;;;7.10;;
67839;SDS011;54636;51.684;5.142;2023-05-07T02:04:22;8.65;;;7.80;;
67839;SDS011;54636;51.684;5.142;2023-05-07T02:06:48;8.98;;;8.10;;
67839;SDS011;54636;51.684;5.142;2023-05-07T02:09:13;8.38;;;7.55;;
67839;SDS011;54636;51.684;5.142;2023-05-07T02:11:39;8.32;;;7.68;;
67839;SDS011;54636;51.684;5.142;2023-05-07T02:14:05;9.73;;;8.50;;
67839;SDS011;54636;51.684;5.142;2023-05-07T02:16:30;8.60;;;7.72;;
67839;SDS011;54636;51.684;5.142;2023-05-07T02:18:56;8.35;;;7.60;;
67839;SDS011;54636;51.684;5.142;2023-05-07T02:21:21;9.18;;;8.13;;
67839;SDS011;54636;51.684;5.142;2023-05-07T02:23:47;8.90;;;8.15;;
67839;SDS011;54636;51.684;5.142;2023-05-07T02:26:12;8.90;;;8.07;;
67839;SDS011;54636;51.684;5.142;2023-05-07T02:28:37;9.13;;;8.25;;
67839;SDS011;54636;51.684;5.142;2023-05-07T02:31:03;9.38;;;8.48;;
67839;SDS011;54636;51.684;5.142;2023-05-07T02:33:29;9.38;;;7.90;;
67839;SDS011;54636;51.684;5.142;2023-05-07T02:35:55;8.88;;;7.97;;
67839;SDS011;54636;51.684;5.142;2023-05-07T02:38:21;9.25;;;8.30;;
67839;SDS011;54636;51.684;5.142;2023-05-07T02:40:47;9.18;;;7.93;;
67839;SDS011;54636;51.684;5.142;2023-05-07T02:43:13;15.30;;;8.63;;
67839;SDS011;54636;51.684;5.142;2023-05-07T02:45:38;9.50;;;8.52;;
67839;SDS011;54636;51.684;5.142;2023-05-07T02:48:04;8.80;;;8.00;;
67839;SDS011;54636;51.684;5.142;2023-05-07T02:50:30;9.25;;;7.90;;
67839;SDS011;54636;51.684;5.142;2023-05-07T02:52:57;9.82;;;8.32;;
67839;SDS011;54636;51.684;5.142;2023-05-07T02:55:23;9.00;;;8.13;;
67839;SDS011;54636;51.684;5.142;2023-05-07T02:57:48;11.20;;;8.65;;
67839;SDS011;54636;51.684;5.142;2023-05-07T03:00:14;10.07;;;8.85;;
67839;SDS011;54636;51.684;5.142;2023-05-07T03:02:44;9.32;;;8.50;;
67839;SDS011;54636;51.684;5.142;2023-05-07T03:05:10;10.02;;;9.10;;
67839;SDS011;54636;51.684;5.142;2023-05-07T03:07:37;9.85;;;8.90;;
67839;SDS011;54636;51.684;5.142;2023-05-07T03:10:03;11.63;;;10.15;;
67839;SDS011;54636;51.684;5.142;2023-05-07T03:12:29;13.02;;;10.15;;
67839;SDS011;54636;51.684;5.142;2023-05-07T03:14:55;10.98;;;9.88;;
67839;SDS011;54636;51.684;5.142;2023-05-07T03:17:21;11.60;;;10.40;;
67839;SDS011;54636;51.684;5.142;2023-05-07T03:19:46;11.93;;;10.55;;
67839;SDS011;54636;51.684;5.142;2023-05-07T03:22:12;11.77;;;10.43;;
67839;SDS011;54636;51.684;5.142;2023-05-07T03:24:37;14.43;;;10.63;;
67839;SDS011;54636;51.684;5.142;2023-05-07T03:27:03;12.25;;;10.85;;
67839;SDS011;54636;51.684;5.142;2023-05-07T03:29:28;12.38;;;10.88;;
67839;SDS011;54636;51.684;5.142;2023-05-07T03:31:53;11.90;;;10.88;;
67839;SDS011;54636;51.684;5.142;2023-05-07T03:34:19;16.27;;;11.27;;
67839;SDS011;54636;51.684;5.142;2023-05-07T03:36:50;15.15;;;10.27;;
67839;SDS011;54636;51.684;5.142;2023-05-07T03:39:15;12.02;;;11.02;;
67839;SDS011;54636;51.684;5.142;2023-05-07T03:41:41;12.18;;;9.88;;
67839;SDS011;54636;51.684;5.142;2023-05-07T03:44:06;12.75;;;10.18;;
67839;SDS011;54636;51.684;5.142;2023-05-07T03:46:32;12.52;;;11.25;;
67839;SDS011;54636;51.684;5.142;2023-05-07T03:48:58;11.77;;;10.60;;
67839;SDS011;54636;51.684;5.142;2023-05-07T03:51:24;13.18;;;11.88;;
67839;SDS011;54636;51.684;5.142;2023-05-07T03:53:50;19.58;;;11.80;;
67839;SDS011;54636;51.684;5.142;2023-05-07T03:56:17;11.95;;;10.75;;
67839;SDS011;54636;51.684;5.142;2023-05-07T03:58:43;12.77;;;11.55;;
67839;SDS011;54636;51.684;5.142;2023-05-07T04:01:09;12.07;;;11.07;;
67839;SDS011;54636;51.684;5.142;2023-05-07T04:03:34;14.90;;;11.95;;
67839;SDS011;54636;51.684;5.142;2023-05-07T04:06:00;13.00;;;11.20;;
67839;SDS011;54636;51.684;5.142;2023-05-07T04:08:25;11.82;;;10.73;;
67839;SDS011;54636;51.684;5.142;2023-05-07T04:10:57;14.25;;;12.85;;
67839;SDS011;54636;51.684;5.142;2023-05-07T04:13:24;12.98;;;11.80;;
67839;SDS011;54636;51.684;5.142;2023-05-07T04:15:50;13.50;;;12.05;;
67839;SDS011;54636;51.684;5.142;2023-05-07T04:18:16;13.23;;;12.02;;
67839;SDS011;54636;51.684;5.142;2023-05-07T04:20:41;13.45;;;12.13;;
67839;SDS011;54636;51.684;5.142;2023-05-07T04:23:07;13.40;;;12.15;;
67839;SDS011;54636;51.684;5.142;2023-05-07T04:25:33;13.95;;;12.48;;
67839;SDS011;54636;51.684;5.142;2023-05-07T04:27:59;13.77;;;12.35;;
67839;SDS011;54636;51.684;5.142;2023-05-07T04:30:24;14.05;;;12.55;;
67839;SDS011;54636;51.684;5.142;2023-05-07T04:32:50;14.57;;;13.15;;
67839;SDS011;54636;51.684;5.142;2023-05-07T04:35:15;14.27;;;12.60;;
67839;SDS011;54636;51.684;5.142;2023-05-07T04:37:41;17.40;;;12.45;;
67839;SDS011;54636;51.684;5.142;2023-05-07T04:40:07;13.55;;;12.20;;
67839;SDS011;54636;51.684;5.142;2023-05-07T04:42:32;14.00;;;12.60;;
67839;SDS011;54636;51.684;5.142;2023-05-07T04:44:58;15.82;;;14.15;;
67839;SDS011;54636;51.684;5.142;2023-05-07T04:47:23;14.98;;;13.60;;
67839;SDS011;54636;51.684;5.142;2023-05-07T04:49:49;16.42;;;13.95;;
67839;SDS011;54636;51.684;5.142;2023-05-07T04:52:14;15.13;;;13.32;;
67839;SDS011;54636;51.684;5.142;2023-05-07T04:54:40;14.65;;;12.93;;
67839;SDS011;54636;51.684;5.142;2023-05-07T04:57:05;16.05;;;13.25;;
67839;SDS011;54636;51.684;5.142;2023-05-07T04:59:31;15.82;;;14.10;;
67839;SDS011;54636;51.684;5.142;2023-05-07T05:01:57;15.75;;;14.15;;
67839;SDS011;54636;51.684;5.142;2023-05-07T05:04:22;19.20;;;15.82;;
67839;SDS011;54636;51.684;5.142;2023-05-07T05:06:49;18.30;;;15.18;;
67839;SDS011;54636;51.684;5.142;2023-05-07T05:09:15;15.57;;;14.00;;
67839;SDS011;54636;51.684;5.142;2023-05-07T05:11:41;19.85;;;16.00;;
67839;SDS011;54636;51.684;5.142;2023-05-07T05:14:06;18.15;;;16.13;;
67839;SDS011;54636;51.684;5.142;2023-05-07T05:16:32;17.90;;;16.08;;
67839;SDS011;54636;51.684;5.142;2023-05-07T05:18:57;17.23;;;15.60;;
67839;SDS011;54636;51.684;5.142;2023-05-07T05:21:23;18.15;;;16.08;;
67839;SDS011;54636;51.684;5.142;2023-05-07T05:23:48;16.33;;;14.65;;
67839;SDS011;54636;51.684;5.142;2023-05-07T05:26:14;17.08;;;14.75;;
67839;SDS011;54636;51.684;5.142;2023-05-07T05:28:39;20.85;;;16.05;;
67839;SDS011;54636;51.684;5.142;2023-05-07T05:31:05;17.95;;;15.40;;
67839;SDS011;54636;51.684;5.142;2023-05-07T05:33:30;18.88;;;16.33;;
67839;SDS011;54636;51.684;5.142;2023-05-07T05:35:56;17.80;;;15.93;;
67839;SDS011;54636;51.684;5.142;2023-05-07T05:38:21;17.10;;;15.45;;
67839;SDS011;54636;51.684;5.142;2023-05-07T05:40:47;18.20;;;15.98;;
67839;SDS011;54636;51.684;5.142;2023-05-07T05:43:13;16.88;;;15.18;;
67839;SDS011;54636;51.684;5.142;2023-05-07T05:45:39;17.33;;;15.13;;
67839;SDS011;54636;51.684;5.142;2023-05-07T05:48:05;20.33;;;15.43;;
67839;SDS011;54636;51.684;5.142;2023-05-07T05:50:30;16.77;;;15.05;;
67839;SDS011;54636;51.684;5.142;2023-05-07T05:52:56;16.83;;;15.23;;
67839;SDS011;54636;51.684;5.142;2023-05-07T05:55:22;17.55;;;15.70;;
67839;SDS011;54636;51.684;5.142;2023-05-07T05:57:48;21.65;;;16.27;;
67839;SDS011;54636;51.684;5.142;2023-05-07T06:00:14;17.42;;;15.73;;
67839;SDS011;54636;51.684;5.142;2023-05-07T06:02:39;19.08;;;15.52;;
67839;SDS011;54636;51.684;5.142;2023-05-07T06:05:05;17.70;;;15.95;;
67839;SDS011;54636;51.684;5.142;2023-05-07T06:07:30;17.58;;;15.48;;
67839;SDS011;54636;51.684;5.142;2023-05-07T06:09:56;17.00;;;15.30;;
67839;SDS011;54636;51.684;5.142;2023-05-07T06:12:21;18.58;;;15.48;;
67839;SDS011;54636;51.684;5.142;2023-05-07T06:14:47;17.30;;;15.63;;
67839;SDS011;54636;51.684;5.142;2023-05-07T06:17:12;17.50;;;15.90;;
67839;SDS011;54636;51.684;5.142;2023-05-07T06:19:38;17.90;;;16.15;;
67839;SDS011;54636;51.684;5.142;2023-05-07T06:22:03;17.58;;;15.98;;
67839;SDS011;54636;51.684;5.142;2023-05-07T06:24:28;18.42;;;16.58;;
67839;SDS011;54636;51.684;5.142;2023-05-07T06:26:54;19.48;;;17.23;;
67839;SDS011;54636;51.684;5.142;2023-05-07T06:29:20;21.83;;;17.35;;
67839;SDS011;54636;51.684;5.142;2023-05-07T06:31:45;19.73;;;16.98;;
67839;SDS011;54636;51.684;5.142;2023-05-07T06:34:11;18.90;;;16.98;;
67839;SDS011;54636;51.684;5.142;2023-05-07T06:36:39;18.60;;;16.63;;
67839;SDS011;54636;51.684;5.142;2023-05-07T06:39:05;19.00;;;17.00;;
67839;SDS011;54636;51.684;5.142;2023-05-07T06:41:31;19.75;;;17.60;;
67839;SDS011;54636;51.684;5.142;2023-05-07T06:43:56;19.13;;;17.17;;
67839;SDS011;54636;51.684;5.142;2023-05-07T06:46:22;18.15;;;16.38;;
67839;SDS011;54636;51.684;5.142;2023-05-07T06:48:47;18.60;;;16.70;;
67839;SDS011;54636;51.684;5.142;2023-05-07T06:51:13;20.10;;;17.25;;
67839;SDS011;54636;51.684;5.142;2023-05-07T06:53:38;18.50;;;16.80;;
67839;SDS011;54636;51.684;5.142;2023-05-07T06:56:04;19.00;;;16.95;;
67839;SDS011;54636;51.684;5.142;2023-05-07T06:58:29;23.08;;;17.05;;
67839;SDS011;54636;51.684;5.142;2023-05-07T07:00:55;19.60;;;17.17;;
67839;SDS011;54636;51.684;5.142;2023-05-07T07:03:20;20.00;;;15.27;;
67839;SDS011;54636;51.684;5.142;2023-05-07T07:05:46;18.77;;;16.77;;
67839;SDS011;54636;51.684;5.142;2023-05-07T07:08:11;19.70;;;17.80;;
67839;SDS011;54636;51.684;5.142;2023-05-07T07:10:37;18.95;;;17.15;;
67839;SDS011;54636;51.684;5.142;2023-05-07T07:13:02;22.20;;;17.52;;
67839;SDS011;54636;51.684;5.142;2023-05-07T07:15:28;20.00;;;17.15;;
67839;SDS011;54636;51.684;5.142;2023-05-07T07:17:53;18.70;;;16.90;;
67839;SDS011;54636;51.684;5.142;2023-05-07T07:20:18;19.77;;;17.85;;
67839;SDS011;54636;51.684;5.142;2023-05-07T07:22:44;17.98;;;16.27;;
67839;SDS011;54636;51.684;5.142;2023-05-07T07:25:09;21.13;;;17.88;;
67839;SDS011;54636;51.684;5.142;2023-05-07T07:27:36;19.65;;;17.75;;
67839;SDS011;54636;51.684;5.142;2023-05-07T07:30:02;19.52;;;17.63;;
67839;SDS011;54636;51.684;5.142;2023-05-07T07:32:27;18.45;;;16.75;;
67839;SDS011;54636;51.684;5.142;2023-05-07T07:34:53;18.60;;;16.80;;
67839;SDS011;54636;51.684;5.142;2023-05-07T07:37:18;19.05;;;16.52;;
67839;SDS011;54636;51.684;5.142;2023-05-07T07:39:44;18.40;;;16.63;;
67839;SDS011;54636;51.684;5.142;2023-05-07T07:42:09;16.80;;;15.32;;
67839;SDS011;54636;51.684;5.142;2023-05-07T07:44:35;17.75;;;15.93;;
67839;SDS011;54636;51.684;5.142;2023-05-07T07:47:00;20.17;;;15.32;;
67839;SDS011;54636;51.684;5.142;2023-05-07T07:49:26;18.20;;;16.45;;
67839;SDS011;54636;51.684;5.142;2023-05-07T07:51:51;20.70;;;15.00;;
67839;SDS011;54636;51.684;5.142;2023-05-07T07:54:17;16.83;;;14.57;;
67839;SDS011;54636;51.684;5.142;2023-05-07T07:56:43;16.98;;;15.25;;
67839;SDS011;54636;51.684;5.142;2023-05-07T07:59:08;16.58;;;14.95;;
67839;SDS011;54636;51.684;5.142;2023-05-07T08:01:33;16.02;;;14.45;;
67839;SDS011;54636;51.684;5.142;2023-05-07T08:03:59;15.27;;;13.63;;
67839;SDS011;54636;51.684;5.142;2023-05-07T08:06:25;15.65;;;14.02;;
67839;SDS011;54636;51.684;5.142;2023-05-07T08:08:53;15.63;;;14.02;;
67839;SDS011;54636;51.684;5.142;2023-05-07T08:11:18;15.30;;;13.82;;
67839;SDS011;54636;51.684;5.142;2023-05-07T08:13:45;14.65;;;13.18;;
67839;SDS011;54636;51.684;5.142;2023-05-07T08:16:10;15.32;;;13.82;;
67839;SDS011;54636;51.684;5.142;2023-05-07T08:18:37;15.30;;;13.77;;
67839;SDS011;54636;51.684;5.142;2023-05-07T08:21:02;16.63;;;13.93;;
67839;SDS011;54636;51.684;5.142;2023-05-07T08:23:28;17.27;;;13.70;;
67839;SDS011;54636;51.684;5.142;2023-05-07T08:25:53;14.57;;;13.18;;
67839;SDS011;54636;51.684;5.142;2023-05-07T08:28:19;15.52;;;13.48;;
67839;SDS011;54636;51.684;5.142;2023-05-07T08:30:46;14.38;;;13.18;;
67839;SDS011;54636;51.684;5.142;2023-05-07T08:33:11;14.85;;;13.45;;
67839;SDS011;54636;51.684;5.142;2023-05-07T08:35:37;15.18;;;13.63;;
67839;SDS011;54636;51.684;5.142;2023-05-07T08:38:02;13.82;;;12.55;;
67839;SDS011;54636;51.684;5.142;2023-05-07T08:40:32;14.30;;;12.63;;
67839;SDS011;54636;51.684;5.142;2023-05-07T08:43:03;21.42;;;13.90;;
67839;SDS011;54636;51.684;5.142;2023-05-07T08:45:30;15.52;;;13.13;;
67839;SDS011;54636;51.684;5.142;2023-05-07T08:47:59;14.27;;;12.77;;
67839;SDS011;54636;51.684;5.142;2023-05-07T08:50:26;13.10;;;11.70;;
67839;SDS011;54636;51.684;5.142;2023-05-07T08:52:52;17.15;;;13.00;;
67839;SDS011;54636;51.684;5.142;2023-05-07T08:55:18;13.63;;;12.30;;
67839;SDS011;54636;51.684;5.142;2023-05-07T08:57:43;12.98;;;11.88;;
67839;SDS011;54636;51.684;5.142;2023-05-07T09:00:09;14.45;;;13.15;;
67839;SDS011;54636;51.684;5.142;2023-05-07T09:02:36;13.52;;;12.20;;
67839;SDS011;54636;51.684;5.142;2023-05-07T09:05:02;13.68;;;12.38;;
67839;SDS011;54636;51.684;5.142;2023-05-07T09:07:28;13.80;;;12.45;;
67839;SDS011;54636;51.684;5.142;2023-05-07T09:09:55;13.13;;;11.93;;
67839;SDS011;54636;51.684;5.142;2023-05-07T09:12:22;13.00;;;11.73;;
67839;SDS011;54636;51.684;5.142;2023-05-07T09:14:47;12.55;;;11.45;;
67839;SDS011;54636;51.684;5.142;2023-05-07T09:17:13;14.10;;;12.25;;
67839;SDS011;54636;51.684;5.142;2023-05-07T09:19:40;13.45;;;12.13;;
67839;SDS011;54636;51.684;5.142;2023-05-07T09:22:06;13.52;;;12.15;;
67839;SDS011;54636;51.684;5.142;2023-05-07T09:24:34;12.48;;;11.38;;
67839;SDS011;54636;51.684;5.142;2023-05-07T09:27:02;13.05;;;11.95;;
67839;SDS011;54636;51.684;5.142;2023-05-07T09:29:31;13.07;;;11.73;;
67839;SDS011;54636;51.684;5.142;2023-05-07T09:32:03;13.75;;;12.40;;
67839;SDS011;54636;51.684;5.142;2023-05-07T09:34:30;12.05;;;10.93;;
67839;SDS011;54636;51.684;5.142;2023-05-07T09:36:58;12.10;;;11.00;;
67839;SDS011;54636;51.684;5.142;2023-05-07T09:39:25;11.70;;;10.70;;
67839;SDS011;54636;51.684;5.142;2023-05-07T09:41:51;11.23;;;10.38;;
67839;SDS011;54636;51.684;5.142;2023-05-07T09:44:19;10.68;;;9.65;;
67839;SDS011;54636;51.684;5.142;2023-05-07T09:46:45;11.52;;;10.43;;
67839;SDS011;54636;51.684;5.142;2023-05-07T09:49:22;11.35;;;10.25;;
67839;SDS011;54636;51.684;5.142;2023-05-07T09:51:50;10.82;;;9.70;;
67839;SDS011;54636;51.684;5.142;2023-05-07T09:54:18;12.07;;;9.48;;
67839;SDS011;54636;51.684;5.142;2023-05-07T09:56:50;7.00;;;6.32;;
67839;SDS011;54636;51.684;5.142;2023-05-07T09:59:17;11.52;;;8.73;;
67839;SDS011;54636;51.684;5.142;2023-05-07T10:01:43;9.07;;;7.82;;
67839;SDS011;54636;51.684;5.142;2023-05-07T10:04:10;10.25;;;8.77;;
67839;SDS011;54636;51.684;5.142;2023-05-07T10:06:36;8.68;;;7.82;;
67839;SDS011;54636;51.684;5.142;2023-05-07T10:09:06;10.57;;;9.05;;
67839;SDS011;54636;51.684;5.142;2023-05-07T10:11:35;9.82;;;9.00;;
67839;SDS011;54636;51.684;5.142;2023-05-07T10:14:01;10.23;;;9.23;;
67839;SDS011;54636;51.684;5.142;2023-05-07T10:16:29;7.97;;;7.28;;
67839;SDS011;54636;51.684;5.142;2023-05-07T10:18:58;8.00;;;7.32;;
67839;SDS011;54636;51.684;5.142;2023-05-07T10:21:24;9.70;;;8.93;;
67839;SDS011;54636;51.684;5.142;2023-05-07T10:23:59;9.77;;;8.63;;
67839;SDS011;54636;51.684;5.142;2023-05-07T10:26:31;10.87;;;9.90;;
67839;SDS011;54636;51.684;5.142;2023-05-07T10:29:04;10.20;;;9.20;;
67839;SDS011;54636;51.684;5.142;2023-05-07T10:34:21;9.38;;;8.35;;
67839;SDS011;54636;51.684;5.142;2023-05-07T10:36:51;9.85;;;8.95;;
67839;SDS011;54636;51.684;5.142;2023-05-07T10:39:17;7.72;;;7.13;;
67839;SDS011;54636;51.684;5.142;2023-05-07T10:41:45;8.57;;;7.85;;
67839;SDS011;54636;51.684;5.142;2023-05-07T10:44:10;8.25;;;7.40;;
67839;SDS011;54636;51.684;5.142;2023-05-07T10:46:36;8.52;;;7.72;;
67839;SDS011;54636;51.684;5.142;2023-05-07T10:51:31;8.88;;;8.05;;
67839;SDS011;54636;51.684;5.142;2023-05-07T10:56:40;8.35;;;7.43;;
67839;SDS011;54636;51.684;5.142;2023-05-07T11:02:04;8.00;;;7.30;;
67839;SDS011;54636;51.684;5.142;2023-05-07T11:04:31;11.75;;;7.93;;
67839;SDS011;54636;51.684;5.142;2023-05-07T11:15:01;8.07;;;7.25;;
67839;SDS011;54636;51.684;5.142;2023-05-07T11:17:31;8.85;;;7.53;;
67839;SDS011;54636;51.684;5.142;2023-05-07T11:19:59;12.25;;;8.00;;
67839;SDS011;54636;51.684;5.142;2023-05-07T11:25:04;6.82;;;6.25;;
67839;SDS011;54636;51.684;5.142;2023-05-07T11:27:30;9.57;;;7.50;;
67839;SDS011;54636;51.684;5.142;2023-05-07T11:29:57;6.50;;;6.10;;
67839;SDS011;54636;51.684;5.142;2023-05-07T11:32:31;7.18;;;6.57;;
67839;SDS011;54636;51.684;5.142;2023-05-07T11:34:57;6.88;;;6.18;;
67839;SDS011;54636;51.684;5.142;2023-05-07T11:37:24;7.85;;;6.70;;
67839;SDS011;54636;51.684;5.142;2023-05-07T11:39:51;8.75;;;6.78;;
67839;SDS011;54636;51.684;5.142;2023-05-07T11:42:33;9.60;;;6.68;;
67839;SDS011;54636;51.684;5.142;2023-05-07T11:44:59;6.97;;;6.47;;
67839;SDS011;54636;51.684;5.142;2023-05-07T11:47:31;7.90;;;6.80;;
67839;SDS011;54636;51.684;5.142;2023-05-07T11:49:57;7.88;;;6.30;;
67839;SDS011;54636;51.684;5.142;2023-05-07T11:52:29;7.53;;;6.35;;
67839;SDS011;54636;51.684;5.142;2023-05-07T11:54:56;8.63;;;6.55;;
67839;SDS011;54636;51.684;5.142;2023-05-07T11:57:23;8.48;;;6.03;;
67839;SDS011;54636;51.684;5.142;2023-05-07T11:59:55;8.27;;;5.70;;
67839;SDS011;54636;51.684;5.142;2023-05-07T12:02:24;9.38;;;5.63;;
67839;SDS011;54636;51.684;5.142;2023-05-07T12:04:51;6.35;;;5.22;;
67839;SDS011;54636;51.684;5.142;2023-05-07T12:07:18;5.35;;;4.93;;
67839;SDS011;54636;51.684;5.142;2023-05-07T12:09:44;10.30;;;4.25;;
67839;SDS011;54636;51.684;5.142;2023-05-07T12:12:11;6.10;;;4.97;;
67839;SDS011;54636;51.684;5.142;2023-05-07T12:14:41;6.05;;;4.28;;
67839;SDS011;54636;51.684;5.142;2023-05-07T12:17:08;4.53;;;4.05;;
67839;SDS011;54636;51.684;5.142;2023-05-07T12:19:35;4.15;;;3.75;;
67839;SDS011;54636;51.684;5.142;2023-05-07T12:22:05;6.53;;;3.67;;
67839;SDS011;54636;51.684;5.142;2023-05-07T12:27:11;6.17;;;3.17;;
67839;SDS011;54636;51.684;5.142;2023-05-07T12:29:37;7.72;;;3.42;;
67839;SDS011;54636;51.684;5.142;2023-05-07T12:32:05;3.92;;;3.55;;
67839;SDS011;54636;51.684;5.142;2023-05-07T12:34:32;5.72;;;4.30;;
67839;SDS011;54636;51.684;5.142;2023-05-07T12:37:01;5.88;;;4.05;;
67839;SDS011;54636;51.684;5.142;2023-05-07T12:39:28;7.55;;;4.07;;
67839;SDS011;54636;51.684;5.142;2023-05-07T12:41:57;6.63;;;3.45;;
67839;SDS011;54636;51.684;5.142;2023-05-07T12:44:29;7.45;;;3.22;;
67839;SDS011;54636;51.684;5.142;2023-05-07T12:46:56;7.13;;;4.30;;
67839;SDS011;54636;51.684;5.142;2023-05-07T12:49:22;6.00;;;4.45;;
67839;SDS011;54636;51.684;5.142;2023-05-07T12:51:49;7.38;;;3.78;;
67839;SDS011;54636;51.684;5.142;2023-05-07T12:54:31;7.80;;;4.90;;
67839;SDS011;54636;51.684;5.142;2023-05-07T12:57:06;5.20;;;4.20;;
67839;SDS011;54636;51.684;5.142;2023-05-07T12:59:36;4.30;;;3.05;;
67839;SDS011;54636;51.684;5.142;2023-05-07T13:02:03;3.60;;;3.30;;
67839;SDS011;54636;51.684;5.142;2023-05-07T13:04:29;4.22;;;3.08;;
67839;SDS011;54636;51.684;5.142;2023-05-07T13:06:55;4.65;;;3.40;;
67839;SDS011;54636;51.684;5.142;2023-05-07T13:09:21;3.83;;;2.42;;
67839;SDS011;54636;51.684;5.142;2023-05-07T13:11:46;8.65;;;2.70;;
67839;SDS011;54636;51.684;5.142;2023-05-07T13:14:12;6.00;;;2.60;;
67839;SDS011;54636;51.684;5.142;2023-05-07T13:19:08;6.18;;;3.17;;
67839;SDS011;54636;51.684;5.142;2023-05-07T13:21:33;10.38;;;6.28;;
67839;SDS011;54636;51.684;5.142;2023-05-07T13:23:59;15.27;;;9.27;;
67839;SDS011;54636;51.684;5.142;2023-05-07T13:26:25;34.05;;;28.35;;
67839;SDS011;54636;51.684;5.142;2023-05-07T13:28:51;15.60;;;9.43;;
67839;SDS011;54636;51.684;5.142;2023-05-07T13:31:17;7.40;;;4.05;;
67839;SDS011;54636;51.684;5.142;2023-05-07T13:33:43;10.25;;;7.18;;
67839;SDS011;54636;51.684;5.142;2023-05-07T13:36:09;10.45;;;5.35;;
67839;SDS011;54636;51.684;5.142;2023-05-07T13:38:35;8.00;;;6.00;;
67839;SDS011;54636;51.684;5.142;2023-05-07T13:41:01;4.85;;;4.40;;
67839;SDS011;54636;51.684;5.142;2023-05-07T13:43:26;6.18;;;4.07;;
67839;SDS011;54636;51.684;5.142;2023-05-07T13:45:52;6.13;;;5.13;;
67839;SDS011;54636;51.684;5.142;2023-05-07T13:48:18;6.95;;;5.47;;
67839;SDS011;54636;51.684;5.142;2023-05-07T13:50:43;5.75;;;4.95;;
67839;SDS011;54636;51.684;5.142;2023-05-07T13:53:12;9.73;;;4.95;;
67839;SDS011;54636;51.684;5.142;2023-05-07T13:55:40;6.97;;;4.65;;
67839;SDS011;54636;51.684;5.142;2023-05-07T13:58:06;5.10;;;4.10;;
67839;SDS011;54636;51.684;5.142;2023-05-07T14:00:31;5.85;;;3.72;;
67839;SDS011;54636;51.684;5.142;2023-05-07T14:02:57;6.68;;;4.13;;
67839;SDS011;54636;51.684;5.142;2023-05-07T14:05:23;6.07;;;3.85;;
67839;SDS011;54636;51.684;5.142;2023-05-07T14:07:50;3.72;;;3.10;;
67839;SDS011;54636;51.684;5.142;2023-05-07T14:10:16;6.93;;;4.20;;
67839;SDS011;54636;51.684;5.142;2023-05-07T14:12:43;7.10;;;4.22;;
67839;SDS011;54636;51.684;5.142;2023-05-07T14:15:09;4.63;;;3.60;;
67839;SDS011;54636;51.684;5.142;2023-05-07T14:17:36;9.27;;;5.90;;
67839;SDS011;54636;51.684;5.142;2023-05-07T14:20:02;6.88;;;5.82;;
67839;SDS011;54636;51.684;5.142;2023-05-07T14:22:28;11.00;;;5.40;;
67839;SDS011;54636;51.684;5.142;2023-05-07T14:24:55;6.45;;;4.60;;
67839;SDS011;54636;51.684;5.142;2023-05-07T14:27:21;9.35;;;5.57;;
67839;SDS011;54636;51.684;5.142;2023-05-07T14:29:48;6.38;;;5.63;;
67839;SDS011;54636;51.684;5.142;2023-05-07T14:32:20;9.57;;;5.40;;
67839;SDS011;54636;51.684;5.142;2023-05-07T14:34:46;5.95;;;5.30;;
67839;SDS011;54636;51.684;5.142;2023-05-07T14:37:12;11.82;;;5.20;;
67839;SDS011;54636;51.684;5.142;2023-05-07T14:39:39;8.65;;;4.78;;
67839;SDS011;54636;51.684;5.142;2023-05-07T14:42:05;6.45;;;4.35;;
67839;SDS011;54636;51.684;5.142;2023-05-07T14:44:32;4.78;;;4.30;;
67839;SDS011;54636;51.684;5.142;2023-05-07T14:47:02;7.63;;;4.00;;
67839;SDS011;54636;51.684;5.142;2023-05-07T14:49:28;4.53;;;3.53;;
67839;SDS011;54636;51.684;5.142;2023-05-07T14:51:54;6.75;;;3.38;;
67839;SDS011;54636;51.684;5.142;2023-05-07T14:54:24;4.82;;;3.15;;